Terminal Aerodrome Forecast
Issued by NWS

Home | Current Version | Previous Version | Text Only | Print | Product List | Glossary On
Versions: 1 2 3 4 5 6 7 8 9 10 11 12 13 14 15 16 17 18 19 20 21 22 23 24
000
FTUS43 KAPX 011820 AAA
TAFTVC
TAF AMD
KTVC 011820Z 0118/0218 33009KT P6SM OVC015
     FM012200 34010KT P6SM BKN025
     FM020000 35011KT P6SM SCT035
     FM020200 VRB03KT P6SM SKC
     FM021400 04006KT P6SM SKC=

USA.gov is the U.S. government's official web portal to all federal, state and local government web resources and services.